createdAt,value
2023-01-23T05:24:59.933Z,101078.47
2023-01-23T05:29:03.867Z,101083.03
2023-01-23T05:33:07.047Z,101090.63
2023-01-23T05:37:11.083Z,101091.03
2023-01-23T05:41:13.882Z,101109.59
2023-01-23T05:45:18.661Z,101116.06
2023-01-23T05:49:21.560Z,101129.94
2023-01-23T05:53:24.693Z,101119.25
2023-01-23T05:57:27.890Z,101123.66
2023-01-23T06:01:32.296Z,101112.94
2023-01-23T06:05:38.258Z,101118.87
2023-01-23T06:09:41.402Z,101123.72
2023-01-23T06:13:45.541Z,101131.66
2023-01-23T06:17:48.429Z,101129.16
2023-01-23T06:21:51.561Z,101138.28
2023-01-23T06:25:54.960Z,101150.16
2023-01-23T06:29:58.474Z,101161.44
2023-01-23T06:34:01.477Z,101157.69
2023-01-23T06:38:04.944Z,101161.25
2023-01-23T06:42:10.452Z,101174.28
2023-01-23T06:46:13.762Z,101183.53
2023-01-23T06:50:17.514Z,101180.50
2023-01-23T06:54:20.803Z,101182.94
2023-01-23T06:58:25.085Z,101181.19
2023-01-23T07:02:29.078Z,101171.38
2023-01-23T07:06:32.348Z,101189.66
2023-01-23T07:10:38.015Z,101194.91
2023-01-23T07:14:40.754Z,101202.59
2023-01-23T07:18:44.152Z,101203.69
2023-01-23T07:22:50.287Z,101205.47
2023-01-23T07:26:54.105Z,101211.75
2023-01-23T07:30:58.766Z,101209.87
2023-01-23T07:35:02.618Z,101209.03
2023-01-23T07:39:05.407Z,101210.25
2023-01-23T07:43:08.709Z,101202.72
2023-01-23T07:47:11.438Z,101212.25
2023-01-23T07:51:15.721Z,101206.94
2023-01-23T07:55:19.226Z,101213.22
2023-01-23T07:59:25.454Z,101217.81
2023-01-23T08:03:29.410Z,101217.56
2023-01-23T08:07:33.627Z,101209.75
2023-01-23T08:11:36.708Z,101204.03
2023-01-23T08:15:40.529Z,101196.63
2023-01-23T08:19:43.450Z,101212.25
2023-01-23T08:23:50.362Z,101216.47
2023-01-23T08:27:53.125Z,101219.56
2023-01-23T08:31:57.568Z,101219.22
2023-01-23T08:36:01.852Z,101225.28
2023-01-23T08:40:06.334Z,101226.13
2023-01-23T08:44:09.709Z,101221.47
2023-01-23T08:48:13.298Z,101230.78
2023-01-23T08:52:16.043Z,101224.63
2023-01-23T08:56:23.148Z,101227.28
2023-01-23T09:00:26.622Z,101234.31
2023-01-23T09:04:29.647Z,101230.03
2023-01-23T09:08:36.090Z,101234.09
2023-01-23T09:12:43.965Z,101231.97
2023-01-23T09:16:47.819Z,101235.44
2023-01-23T09:20:53.932Z,101238.34
2023-01-23T09:25:05.780Z,101238.25
2023-01-23T09:29:18.266Z,101231.66
2023-01-23T09:38:01.083Z,101231.41
2023-01-23T09:42:11.162Z,101230.97
2023-01-23T09:46:19.844Z,101217.22
2023-01-23T09:50:30.002Z,101219.41
2023-01-23T09:54:44.661Z,101222.78
2023-01-23T09:59:12.245Z,101234.13
2023-01-23T10:03:16.615Z,101214.66
2023-01-23T10:07:29.909Z,101219.09
2023-01-23T10:11:54.363Z,101215.63
2023-01-23T10:16:19.081Z,101213.50
2023-01-23T10:20:37.080Z,101208.03
2023-01-23T10:24:55.253Z,101204.13
2023-01-23T10:29:03.598Z,101211.44
2023-01-23T10:33:15.409Z,101202.69
2023-01-23T10:38:00.830Z,101206.41
2023-01-23T10:42:11.342Z,101211.69
2023-01-23T10:46:28.089Z,101204.62
2023-01-23T10:50:41.097Z,101202.75
2023-01-23T10:54:48.009Z,101197.25
2023-01-23T10:59:00.730Z,101206.91
2023-01-23T11:07:54.075Z,101191.59
2023-01-23T11:12:08.501Z,101189.06
2023-01-23T11:16:21.180Z,101192.34
2023-01-23T11:20:44.341Z,101192.34
2023-01-23T11:24:52.874Z,101193.22
2023-01-23T11:29:25.658Z,101181.50
2023-01-23T11:33:41.637Z,101179.75
2023-01-23T11:37:45.000Z,101177.94
2023-01-23T11:41:49.029Z,101183.03
2023-01-23T11:46:12.081Z,101183.91
2023-01-23T11:50:35.451Z,101176.88
2023-01-23T11:54:58.200Z,101171.88
2023-01-23T11:59:42.401Z,101169.97
2023-01-23T12:04:26.984Z,101169.28
2023-01-23T12:08:39.065Z,101161.28
2023-01-23T12:13:06.134Z,101156.53
2023-01-23T12:17:22.843Z,101159.88
2023-01-23T12:21:39.462Z,101152.09
2023-01-23T12:26:07.209Z,101154.84
2023-01-23T12:30:56.767Z,101157.00
2023-01-23T12:35:21.554Z,101160.19
2023-01-23T12:39:46.449Z,101150.62
2023-01-23T12:44:02.330Z,101149.16
2023-01-23T12:48:20.773Z,101152.69
2023-01-23T12:52:33.182Z,101150.81
2023-01-23T12:56:39.986Z,101160.25
2023-01-23T13:01:21.834Z,101159.66
2023-01-23T13:05:39.959Z,101157.28
2023-01-23T13:09:55.845Z,101169.44
2023-01-23T13:14:01.981Z,101175.91
2023-01-23T13:18:06.554Z,101171.16
2023-01-23T13:22:27.819Z,101178.25
2023-01-23T13:26:32.518Z,101174.03
2023-01-23T13:30:41.994Z,101180.81
2023-01-23T13:34:45.763Z,101178.78
2023-01-23T13:39:18.646Z,101183.88
2023-01-23T13:43:51.941Z,101180.31
2023-01-23T14:20:23.709Z,101188.75
2023-01-23T14:24:57.738Z,101194.50
2023-01-23T14:33:26.429Z,101199.75
2023-01-23T14:37:33.297Z,101207.72
2023-01-23T14:41:51.468Z,101198.53
2023-01-23T14:46:19.988Z,101206.66
2023-01-23T14:50:27.579Z,101206.16
2023-01-23T14:54:33.143Z,101201.16
2023-01-23T14:58:40.202Z,101202.53
2023-01-23T15:02:51.318Z,101208.31
2023-01-23T15:07:03.970Z,101201.06
2023-01-23T15:11:11.977Z,101204.06
2023-01-23T15:15:18.672Z,101203.16
2023-01-23T15:19:22.887Z,101209.06
2023-01-23T15:23:33.990Z,101200.88
2023-01-23T15:27:37.449Z,101212.69
2023-01-23T15:31:40.538Z,101221.47
2023-01-23T15:35:43.356Z,101215.66
2023-01-23T15:39:46.293Z,101219.00
2023-01-23T15:43:48.964Z,101217.78
2023-01-23T15:47:52.030Z,101214.06
2023-01-23T15:51:56.588Z,101210.34
2023-01-23T15:56:01.474Z,101218.25
2023-01-23T16:00:18.803Z,101218.09
2023-01-23T16:04:21.849Z,101225.09
2023-01-23T16:08:25.461Z,101216.34
2023-01-23T16:12:29.567Z,101223.28
2023-01-23T16:16:32.267Z,101224.97
